sensor_id;sensor_type;location;lat;lon;timestamp;pressure;altitude;pressure_sealevel;temperature;humidity
28626;BME280;18905;42.668;23.364;2023-02-04T00:01:30;94913.34;;;1.47;100.00
28626;BME280;18905;42.668;23.364;2023-02-04T00:03:55;94921.56;;;1.56;100.00
28626;BME280;18905;42.668;23.364;2023-02-04T00:06:21;94915.19;;;1.42;100.00
28626;BME280;18905;42.668;23.364;2023-02-04T00:08:46;94912.00;;;1.40;100.00
28626;BME280;18905;42.668;23.364;2023-02-04T00:11:11;94888.84;;;1.25;100.00
28626;BME280;18905;42.668;23.364;2023-02-04T00:13:37;94901.06;;;1.46;100.00
28626;BME280;18905;42.668;23.364;2023-02-04T00:16:02;94894.41;;;1.49;100.00
28626;BME280;18905;42.668;23.364;2023-02-04T00:18:28;94880.31;;;1.18;100.00
28626;BME280;18905;42.668;23.364;2023-02-04T00:20:53;94871.56;;;1.33;100.00
28626;BME280;18905;42.668;23.364;2023-02-04T00:23:19;94894.41;;;1.39;100.00
28626;BME280;18905;42.668;23.364;2023-02-04T00:25:44;94894.69;;;1.32;100.00
28626;BME280;18905;42.668;23.364;2023-02-04T00:28:10;94895.50;;;1.33;100.00
28626;BME280;18905;42.668;23.364;2023-02-04T00:30:35;94882.75;;;1.55;100.00
28626;BME280;18905;42.668;23.364;2023-02-04T00:33:00;94884.06;;;1.52;100.00
28626;BME280;18905;42.668;23.364;2023-02-04T00:35:26;94865.97;;;1.44;100.00
28626;BME280;18905;42.668;23.364;2023-02-04T00:37:51;94867.56;;;1.35;100.00
28626;BME280;18905;42.668;23.364;2023-02-04T00:40:17;94886.19;;;1.35;100.00
28626;BME280;18905;42.668;23.364;2023-02-04T00:42:42;94879.78;;;1.21;100.00
28626;BME280;18905;42.668;23.364;2023-02-04T00:45:09;94874.72;;;1.30;100.00
28626;BME280;18905;42.668;23.364;2023-02-04T00:47:35;94878.47;;;1.39;100.00
28626;BME280;18905;42.668;23.364;2023-02-04T00:50:00;94844.97;;;1.18;100.00
28626;BME280;18905;42.668;23.364;2023-02-04T00:52:25;94855.59;;;1.38;100.00
28626;BME280;18905;42.668;23.364;2023-02-04T00:54:51;94867.00;;;1.68;100.00
28626;BME280;18905;42.668;23.364;2023-02-04T00:57:17;94860.91;;;1.63;100.00
28626;BME280;18905;42.668;23.364;2023-02-04T00:59:43;94856.66;;;1.77;100.00
28626;BME280;18905;42.668;23.364;2023-02-04T01:02:08;94857.41;;;1.82;100.00
28626;BME280;18905;42.668;23.364;2023-02-04T01:04:34;94858.25;;;1.68;100.00
28626;BME280;18905;42.668;23.364;2023-02-04T01:06:59;94843.91;;;1.54;100.00
28626;BME280;18905;42.668;23.364;2023-02-04T01:09:25;94837.47;;;1.70;100.00
28626;BME280;18905;42.668;23.364;2023-02-04T01:11:50;94835.91;;;1.64;100.00
28626;BME280;18905;42.668;23.364;2023-02-04T01:14:15;94829.72;;;1.78;100.00
28626;BME280;18905;42.668;23.364;2023-02-04T01:16:41;94815.16;;;1.56;100.00
28626;BME280;18905;42.668;23.364;2023-02-04T01:19:06;94830.81;;;1.77;100.00
28626;BME280;18905;42.668;23.364;2023-02-04T01:21:32;94824.13;;;1.90;100.00
28626;BME280;18905;42.668;23.364;2023-02-04T01:23:57;94812.63;;;2.09;100.00
28626;BME280;18905;42.668;23.364;2023-02-04T01:26:22;94802.31;;;1.88;100.00
28626;BME280;18905;42.668;23.364;2023-02-04T01:28:48;94797.81;;;1.73;100.00
28626;BME280;18905;42.668;23.364;2023-02-04T01:31:14;94805.81;;;1.63;100.00
28626;BME280;18905;42.668;23.364;2023-02-04T01:33:40;94786.41;;;1.63;100.00
28626;BME280;18905;42.668;23.364;2023-02-04T01:36:05;94790.94;;;1.57;100.00
28626;BME280;18905;42.668;23.364;2023-02-04T01:38:31;94792.75;;;1.82;100.00
28626;BME280;18905;42.668;23.364;2023-02-04T01:40:56;94791.72;;;1.58;100.00
28626;BME280;18905;42.668;23.364;2023-02-04T01:43:23;94782.91;;;1.72;100.00
28626;BME280;18905;42.668;23.364;2023-02-04T01:45:49;94764.84;;;1.59;100.00
28626;BME280;18905;42.668;23.364;2023-02-04T01:48:16;94778.91;;;1.70;100.00
28626;BME280;18905;42.668;23.364;2023-02-04T01:50:50;94780.44;;;2.01;100.00
28626;BME280;18905;42.668;23.364;2023-02-04T01:53:19;94783.06;;;2.11;100.00
28626;BME280;18905;42.668;23.364;2023-02-04T01:55:46;94770.25;;;2.18;100.00
28626;BME280;18905;42.668;23.364;2023-02-04T01:58:11;94778.25;;;2.13;100.00
28626;BME280;18905;42.668;23.364;2023-02-04T02:00:37;94766.78;;;2.17;100.00
28626;BME280;18905;42.668;23.364;2023-02-04T02:03:05;94780.63;;;2.24;100.00
28626;BME280;18905;42.668;23.364;2023-02-04T02:05:43;94770.50;;;2.21;100.00
28626;BME280;18905;42.668;23.364;2023-02-04T02:08:10;94756.09;;;2.22;100.00
28626;BME280;18905;42.668;23.364;2023-02-04T02:10:37;94762.81;;;2.10;100.00
28626;BME280;18905;42.668;23.364;2023-02-04T02:13:04;94765.19;;;2.21;100.00
28626;BME280;18905;42.668;23.364;2023-02-04T02:15:30;94749.25;;;2.11;100.00
28626;BME280;18905;42.668;23.364;2023-02-04T02:17:56;94753.41;;;2.27;100.00
28626;BME280;18905;42.668;23.364;2023-02-04T02:20:24;94745.06;;;2.44;100.00
28626;BME280;18905;42.668;23.364;2023-02-04T02:25:21;94733.44;;;2.25;100.00
28626;BME280;18905;42.668;23.364;2023-02-04T02:27:46;94736.69;;;2.12;100.00
28626;BME280;18905;42.668;23.364;2023-02-04T02:30:12;94724.25;;;2.02;100.00
28626;BME280;18905;42.668;23.364;2023-02-04T02:32:42;94718.38;;;2.00;100.00
28626;BME280;18905;42.668;23.364;2023-02-04T02:35:08;94689.09;;;2.00;100.00
28626;BME280;18905;42.668;23.364;2023-02-04T02:37:34;94674.09;;;2.14;100.00
28626;BME280;18905;42.668;23.364;2023-02-04T02:40:00;94658.03;;;1.86;100.00
28626;BME280;18905;42.668;23.364;2023-02-04T02:42:25;94661.22;;;1.88;100.00
28626;BME280;18905;42.668;23.364;2023-02-04T02:44:50;94655.00;;;2.07;100.00
28626;BME280;18905;42.668;23.364;2023-02-04T02:47:20;94657.81;;;2.21;100.00
28626;BME280;18905;42.668;23.364;2023-02-04T02:49:48;94657.41;;;2.04;100.00
28626;BME280;18905;42.668;23.364;2023-02-04T02:52:14;94658.63;;;2.21;100.00
28626;BME280;18905;42.668;23.364;2023-02-04T02:54:40;94641.88;;;2.16;100.00
28626;BME280;18905;42.668;23.364;2023-02-04T02:57:14;94649.56;;;2.22;100.00
28626;BME280;18905;42.668;23.364;2023-02-04T02:59:41;94646.09;;;2.27;100.00
28626;BME280;18905;42.668;23.364;2023-02-04T03:02:07;94669.06;;;2.51;100.00
28626;BME280;18905;42.668;23.364;2023-02-04T03:04:37;94673.84;;;2.16;100.00
28626;BME280;18905;42.668;23.364;2023-02-04T03:07:04;94662.22;;;1.97;100.00
28626;BME280;18905;42.668;23.364;2023-02-04T03:09:30;94637.84;;;1.75;100.00
28626;BME280;18905;42.668;23.364;2023-02-04T03:11:57;94647.91;;;1.88;100.00
28626;BME280;18905;42.668;23.364;2023-02-04T03:14:23;94666.50;;;1.93;100.00
28626;BME280;18905;42.668;23.364;2023-02-04T03:16:50;94684.66;;;1.86;100.00
28626;BME280;18905;42.668;23.364;2023-02-04T03:19:16;94667.66;;;1.77;100.00
28626;BME280;18905;42.668;23.364;2023-02-04T03:21:42;94646.69;;;1.65;100.00
28626;BME280;18905;42.668;23.364;2023-02-04T03:24:07;94622.50;;;1.57;100.00
28626;BME280;18905;42.668;23.364;2023-02-04T03:26:33;94647.34;;;1.91;100.00
28626;BME280;18905;42.668;23.364;2023-02-04T03:28:59;94639.81;;;2.03;100.00
28626;BME280;18905;42.668;23.364;2023-02-04T03:31:24;94654.38;;;2.20;100.00
28626;BME280;18905;42.668;23.364;2023-02-04T03:33:50;94655.09;;;2.36;100.00
28626;BME280;18905;42.668;23.364;2023-02-04T03:36:15;94652.41;;;2.31;100.00
28626;BME280;18905;42.668;23.364;2023-02-04T03:38:41;94664.66;;;2.37;100.00
28626;BME280;18905;42.668;23.364;2023-02-04T03:41:06;94654.16;;;2.50;100.00
28626;BME280;18905;42.668;23.364;2023-02-04T03:43:32;94651.09;;;2.67;100.00
28626;BME280;18905;42.668;23.364;2023-02-04T03:45:57;94641.00;;;2.64;100.00
28626;BME280;18905;42.668;23.364;2023-02-04T03:48:22;94648.66;;;2.75;100.00
28626;BME280;18905;42.668;23.364;2023-02-04T03:50:48;94641.16;;;2.77;100.00
28626;BME280;18905;42.668;23.364;2023-02-04T03:53:13;94646.25;;;2.74;100.00
28626;BME280;18905;42.668;23.364;2023-02-04T03:55:38;94627.09;;;2.67;100.00
28626;BME280;18905;42.668;23.364;2023-02-04T03:58:04;94627.06;;;2.72;100.00
28626;BME280;18905;42.668;23.364;2023-02-04T04:00:30;94626.75;;;2.78;100.00
28626;BME280;18905;42.668;23.364;2023-02-04T04:02:57;94611.19;;;2.90;100.00
28626;BME280;18905;42.668;23.364;2023-02-04T04:05:22;94606.66;;;2.91;100.00
28626;BME280;18905;42.668;23.364;2023-02-04T04:07:48;94600.34;;;2.48;100.00
28626;BME280;18905;42.668;23.364;2023-02-04T04:10:13;94594.66;;;2.60;100.00
28626;BME280;18905;42.668;23.364;2023-02-04T04:12:39;94586.59;;;2.36;100.00
28626;BME280;18905;42.668;23.364;2023-02-04T04:15:04;94565.50;;;2.11;100.00
28626;BME280;18905;42.668;23.364;2023-02-04T04:17:30;94570.59;;;2.03;100.00
28626;BME280;18905;42.668;23.364;2023-02-04T04:19:56;94584.28;;;1.86;100.00
28626;BME280;18905;42.668;23.364;2023-02-04T04:22:21;94576.56;;;1.85;100.00
28626;BME280;18905;42.668;23.364;2023-02-04T04:24:46;94573.34;;;1.88;100.00
28626;BME280;18905;42.668;23.364;2023-02-04T04:27:12;94574.44;;;1.87;100.00
28626;BME280;18905;42.668;23.364;2023-02-04T04:29:37;94576.19;;;1.63;100.00
28626;BME280;18905;42.668;23.364;2023-02-04T04:32:02;94586.50;;;1.69;100.00
28626;BME280;18905;42.668;23.364;2023-02-04T04:34:29;94597.88;;;1.80;100.00
28626;BME280;18905;42.668;23.364;2023-02-04T04:36:55;94596.28;;;1.84;100.00
28626;BME280;18905;42.668;23.364;2023-02-04T04:39:20;94578.22;;;1.76;100.00
28626;BME280;18905;42.668;23.364;2023-02-04T04:41:46;94601.66;;;1.74;100.00
28626;BME280;18905;42.668;23.364;2023-02-04T04:44:11;94597.97;;;1.65;100.00
28626;BME280;18905;42.668;23.364;2023-02-04T04:46:37;94596.22;;;1.40;100.00
28626;BME280;18905;42.668;23.364;2023-02-04T04:49:05;94583.97;;;1.44;100.00
28626;BME280;18905;42.668;23.364;2023-02-04T04:51:30;94599.13;;;1.44;100.00
28626;BME280;18905;42.668;23.364;2023-02-04T04:53:56;94596.09;;;1.70;100.00
28626;BME280;18905;42.668;23.364;2023-02-04T04:56:22;94613.38;;;1.73;100.00
28626;BME280;18905;42.668;23.364;2023-02-04T04:58:47;94602.88;;;1.43;100.00
28626;BME280;18905;42.668;23.364;2023-02-04T05:01:13;94618.94;;;1.76;100.00
28626;BME280;18905;42.668;23.364;2023-02-04T05:03:38;94618.69;;;1.73;100.00
28626;BME280;18905;42.668;23.364;2023-02-04T05:06:04;94608.81;;;1.83;100.00
28626;BME280;18905;42.668;23.364;2023-02-04T05:08:29;94614.63;;;1.85;100.00
28626;BME280;18905;42.668;23.364;2023-02-04T05:10:55;94606.59;;;1.95;100.00
28626;BME280;18905;42.668;23.364;2023-02-04T05:13:20;94603.53;;;2.12;100.00
28626;BME280;18905;42.668;23.364;2023-02-04T05:15:48;94619.09;;;2.00;100.00
28626;BME280;18905;42.668;23.364;2023-02-04T05:18:13;94620.53;;;2.21;100.00
28626;BME280;18905;42.668;23.364;2023-02-04T05:20:39;94626.41;;;2.85;100.00
28626;BME280;18905;42.668;23.364;2023-02-04T05:23:04;94634.47;;;3.08;100.00
28626;BME280;18905;42.668;23.364;2023-02-04T05:25:29;94643.03;;;3.05;100.00
28626;BME280;18905;42.668;23.364;2023-02-04T05:27:55;94638.84;;;2.66;100.00
28626;BME280;18905;42.668;23.364;2023-02-04T05:30:20;94636.56;;;2.83;100.00
28626;BME280;18905;42.668;23.364;2023-02-04T05:32:46;94642.50;;;2.75;100.00
28626;BME280;18905;42.668;23.364;2023-02-04T05:35:11;94667.03;;;3.34;100.00
28626;BME280;18905;42.668;23.364;2023-02-04T05:37:36;94647.25;;;2.83;100.00
28626;BME280;18905;42.668;23.364;2023-02-04T05:40:02;94652.97;;;2.95;100.00
28626;BME280;18905;42.668;23.364;2023-02-04T05:42:28;94642.13;;;2.86;100.00
28626;BME280;18905;42.668;23.364;2023-02-04T05:44:53;94647.00;;;3.08;100.00
28626;BME280;18905;42.668;23.364;2023-02-04T05:47:18;94673.16;;;3.06;100.00
28626;BME280;18905;42.668;23.364;2023-02-04T05:49:44;94648.88;;;3.07;100.00
28626;BME280;18905;42.668;23.364;2023-02-04T05:52:10;94638.63;;;3.19;100.00
28626;BME280;18905;42.668;23.364;2023-02-04T05:54:36;94644.28;;;3.13;100.00
28626;BME280;18905;42.668;23.364;2023-02-04T05:57:01;94647.16;;;3.21;100.00
28626;BME280;18905;42.668;23.364;2023-02-04T05:59:27;94611.63;;;3.49;100.00
28626;BME280;18905;42.668;23.364;2023-02-04T06:01:52;94626.81;;;3.49;100.00
28626;BME280;18905;42.668;23.364;2023-02-04T06:04:18;94628.06;;;3.09;100.00
28626;BME280;18905;42.668;23.364;2023-02-04T06:06:44;94641.34;;;3.14;100.00
28626;BME280;18905;42.668;23.364;2023-02-04T06:09:09;94640.34;;;3.34;100.00
28626;BME280;18905;42.668;23.364;2023-02-04T06:11:35;94646.75;;;3.33;100.00
28626;BME280;18905;42.668;23.364;2023-02-04T06:14:00;94646.94;;;3.41;100.00
28626;BME280;18905;42.668;23.364;2023-02-04T06:16:26;94637.13;;;3.37;100.00
28626;BME280;18905;42.668;23.364;2023-02-04T06:18:51;94634.88;;;3.44;100.00
28626;BME280;18905;42.668;23.364;2023-02-04T06:21:17;94651.69;;;3.68;100.00
28626;BME280;18905;42.668;23.364;2023-02-04T06:23:42;94634.78;;;3.54;100.00
28626;BME280;18905;42.668;23.364;2023-02-04T06:26:08;94613.19;;;3.50;100.00
28626;BME280;18905;42.668;23.364;2023-02-04T06:28:34;94650.56;;;3.74;100.00
28626;BME280;18905;42.668;23.364;2023-02-04T06:30:59;94642.63;;;3.69;100.00
28626;BME280;18905;42.668;23.364;2023-02-04T06:33:25;94650.78;;;3.77;100.00
28626;BME280;18905;42.668;23.364;2023-02-04T06:35:50;94650.72;;;3.59;100.00
28626;BME280;18905;42.668;23.364;2023-02-04T06:38:16;94646.66;;;3.66;100.00
28626;BME280;18905;42.668;23.364;2023-02-04T06:40:41;94645.28;;;3.69;100.00
28626;BME280;18905;42.668;23.364;2023-02-04T06:43:07;94629.34;;;3.82;100.00
28626;BME280;18905;42.668;23.364;2023-02-04T06:45:32;94652.16;;;3.93;100.00
28626;BME280;18905;42.668;23.364;2023-02-04T06:47:58;94618.53;;;3.74;100.00
28626;BME280;18905;42.668;23.364;2023-02-04T06:50:23;94649.88;;;3.87;100.00
28626;BME280;18905;42.668;23.364;2023-02-04T06:52:48;94636.06;;;3.80;100.00
28626;BME280;18905;42.668;23.364;2023-02-04T06:55:15;94647.03;;;3.78;100.00
28626;BME280;18905;42.668;23.364;2023-02-04T06:57:41;94649.91;;;3.82;100.00
28626;BME280;18905;42.668;23.364;2023-02-04T07:00:08;94628.38;;;3.97;100.00
28626;BME280;18905;42.668;23.364;2023-02-04T07:02:34;94624.06;;;4.01;100.00
28626;BME280;18905;42.668;23.364;2023-02-04T07:05:00;94624.47;;;4.08;100.00
28626;BME280;18905;42.668;23.364;2023-02-04T07:07:26;94625.59;;;4.57;100.00
28626;BME280;18905;42.668;23.364;2023-02-04T07:09:51;94625.72;;;5.43;100.00
28626;BME280;18905;42.668;23.364;2023-02-04T07:12:17;94629.00;;;6.57;100.00
28626;BME280;18905;42.668;23.364;2023-02-04T07:14:42;94616.56;;;6.83;100.00
28626;BME280;18905;42.668;23.364;2023-02-04T07:17:08;94604.63;;;6.67;95.42
28626;BME280;18905;42.668;23.364;2023-02-04T07:19:33;94632.75;;;7.83;91.47
28626;BME280;18905;42.668;23.364;2023-02-04T07:22:00;94621.03;;;6.87;89.47
28626;BME280;18905;42.668;23.364;2023-02-04T07:24:26;94615.72;;;7.96;84.40
28626;BME280;18905;42.668;23.364;2023-02-04T07:26:51;94608.69;;;7.08;84.95
28626;BME280;18905;42.668;23.364;2023-02-04T07:29:17;94596.78;;;7.01;85.05
28626;BME280;18905;42.668;23.364;2023-02-04T07:31:45;94610.09;;;7.06;87.60
28626;BME280;18905;42.668;23.364;2023-02-04T07:34:12;94604.13;;;8.26;82.21
28626;BME280;18905;42.668;23.364;2023-02-04T07:36:38;94617.53;;;9.28;72.64
28626;BME280;18905;42.668;23.364;2023-02-04T07:39:04;94613.63;;;9.00;66.16
28626;BME280;18905;42.668;23.364;2023-02-04T07:41:29;94612.19;;;8.26;71.99
28626;BME280;18905;42.668;23.364;2023-02-04T07:43:55;94603.16;;;8.39;70.26
28626;BME280;18905;42.668;23.364;2023-02-04T07:46:20;94627.41;;;8.90;67.21
28626;BME280;18905;42.668;23.364;2023-02-04T07:48:45;94625.66;;;8.94;68.10
28626;BME280;18905;42.668;23.364;2023-02-04T07:51:11;94618.13;;;7.28;74.15
28626;BME280;18905;42.668;23.364;2023-02-04T07:53:36;94607.34;;;8.06;76.49
28626;BME280;18905;42.668;23.364;2023-02-04T07:56:02;94605.03;;;8.21;72.96
28626;BME280;18905;42.668;23.364;2023-02-04T07:58:27;94610.63;;;8.59;72.33
28626;BME280;18905;42.668;23.364;2023-02-04T08:00:53;94610.47;;;8.38;72.93
28626;BME280;18905;42.668;23.364;2023-02-04T08:03:18;94606.59;;;8.14;72.31
28626;BME280;18905;42.668;23.364;2023-02-04T08:05:43;94613.84;;;8.13;71.58
28626;BME280;18905;42.668;23.364;2023-02-04T08:08:09;94596.16;;;8.21;72.01
28626;BME280;18905;42.668;23.364;2023-02-04T08:10:34;94608.22;;;6.84;76.70
28626;BME280;18905;42.668;23.364;2023-02-04T08:12:59;94621.81;;;7.40;79.69
28626;BME280;18905;42.668;23.364;2023-02-04T08:15:25;94611.88;;;7.10;81.25
28626;BME280;18905;42.668;23.364;2023-02-04T08:17:50;94616.34;;;6.35;85.20
28626;BME280;18905;42.668;23.364;2023-02-04T08:20:16;94613.88;;;6.25;91.38
28626;BME280;18905;42.668;23.364;2023-02-04T08:22:42;94594.88;;;5.46;94.92
28626;BME280;18905;42.668;23.364;2023-02-04T08:25:09;94600.34;;;5.27;99.14
28626;BME280;18905;42.668;23.364;2023-02-04T08:27:35;94598.44;;;5.55;99.38
28626;BME280;18905;42.668;23.364;2023-02-04T08:30:01;94579.53;;;5.38;100.00
28626;BME280;18905;42.668;23.364;2023-02-04T08:32:27;94597.84;;;5.31;100.00
28626;BME280;18905;42.668;23.364;2023-02-04T08:34:53;94596.19;;;5.35;100.00
28626;BME280;18905;42.668;23.364;2023-02-04T08:37:19;94590.41;;;5.14;100.00
28626;BME280;18905;42.668;23.364;2023-02-04T08:39:44;94587.41;;;5.02;100.00
28626;BME280;18905;42.668;23.364;2023-02-04T08:42:14;94587.84;;;5.50;100.00
28626;BME280;18905;42.668;23.364;2023-02-04T08:44:40;94607.19;;;5.47;100.00
28626;BME280;18905;42.668;23.364;2023-02-04T08:47:06;94595.50;;;5.70;100.00
28626;BME280;18905;42.668;23.364;2023-02-04T08:49:31;94589.44;;;5.51;100.00
28626;BME280;18905;42.668;23.364;2023-02-04T08:51:57;94606.72;;;5.58;100.00
28626;BME280;18905;42.668;23.364;2023-02-04T08:54:22;94598.94;;;5.70;100.00
28626;BME280;18905;42.668;23.364;2023-02-04T08:56:49;94596.84;;;5.27;100.00
28626;BME280;18905;42.668;23.364;2023-02-04T08:59:15;94595.75;;;5.14;100.00
28626;BME280;18905;42.668;23.364;2023-02-04T09:01:40;94605.09;;;5.44;100.00
28626;BME280;18905;42.668;23.364;2023-02-04T09:04:06;94597.41;;;4.97;100.00
28626;BME280;18905;42.668;23.364;2023-02-04T09:06:31;94572.63;;;5.05;100.00
28626;BME280;18905;42.668;23.364;2023-02-04T09:08:57;94606.19;;;5.29;100.00
28626;BME280;18905;42.668;23.364;2023-02-04T09:11:22;94585.53;;;5.03;100.00
28626;BME280;18905;42.668;23.364;2023-02-04T09:13:48;94608.94;;;5.24;100.00
28626;BME280;18905;42.668;23.364;2023-02-04T09:16:13;94601.91;;;5.15;100.00
28626;BME280;18905;42.668;23.364;2023-02-04T09:18:39;94573.28;;;5.29;100.00
28626;BME280;18905;42.668;23.364;2023-02-04T09:21:04;94592.22;;;5.32;100.00
28626;BME280;18905;42.668;23.364;2023-02-04T09:23:30;94585.56;;;5.57;100.00
28626;BME280;18905;42.668;23.364;2023-02-04T09:25:55;94587.84;;;5.63;100.00
28626;BME280;18905;42.668;23.364;2023-02-04T09:28:21;94591.22;;;5.42;100.00
28626;BME280;18905;42.668;23.364;2023-02-04T09:30:46;94591.91;;;5.47;100.00
28626;BME280;18905;42.668;23.364;2023-02-04T09:33:13;94579.03;;;5.63;100.00
28626;BME280;18905;42.668;23.364;2023-02-04T09:35:40;94570.78;;;5.73;100.00
28626;BME280;18905;42.668;23.364;2023-02-04T09:38:06;94574.16;;;5.65;100.00
28626;BME280;18905;42.668;23.364;2023-02-04T09:40:39;94578.13;;;5.13;100.00
28626;BME280;18905;42.668;23.364;2023-02-04T09:43:05;94582.28;;;5.33;100.00
28626;BME280;18905;42.668;23.364;2023-02-04T09:45:34;94573.56;;;5.41;100.00
28626;BME280;18905;42.668;23.364;2023-02-04T09:48:03;94583.91;;;5.61;100.00
28626;BME280;18905;42.668;23.364;2023-02-04T09:50:30;94582.00;;;5.48;100.00
28626;BME280;18905;42.668;23.364;2023-02-04T09:53:03;94570.78;;;5.19;100.00
28626;BME280;18905;42.668;23.364;2023-02-04T09:55:33;94579.75;;;4.96;100.00
28626;BME280;18905;42.668;23.364;2023-02-04T09:57:59;94558.00;;;4.70;100.00
28626;BME280;18905;42.668;23.364;2023-02-04T10:00:26;94571.72;;;4.82;100.00
28626;BME280;18905;42.668;23.364;2023-02-04T10:02:52;94561.81;;;4.83;100.00
28626;BME280;18905;42.668;23.364;2023-02-04T10:05:23;94562.84;;;5.00;100.00
28626;BME280;18905;42.668;23.364;2023-02-04T10:07:49;94565.00;;;4.98;100.00
28626;BME280;18905;42.668;23.364;2023-02-04T10:10:20;94560.00;;;4.65;100.00
28626;BME280;18905;42.668;23.364;2023-02-04T10:12:47;94555.28;;;5.02;100.00
28626;BME280;18905;42.668;23.364;2023-02-04T10:15:16;94538.22;;;4.71;100.00
28626;BME280;18905;42.668;23.364;2023-02-04T10:17:47;94536.47;;;5.07;100.00
28626;BME280;18905;42.668;23.364;2023-02-04T10:20:16;94544.78;;;4.79;100.00
28626;BME280;18905;42.668;23.364;2023-02-04T10:22:42;94535.03;;;4.69;100.00
28626;BME280;18905;42.668;23.364;2023-02-04T10:25:15;94553.63;;;4.93;100.00
28626;BME280;18905;42.668;23.364;2023-02-04T10:27:54;94532.25;;;4.61;100.00
28626;BME280;18905;42.668;23.364;2023-02-04T10:30:31;94505.38;;;4.52;100.00
28626;BME280;18905;42.668;23.364;2023-02-04T10:33:00;94538.66;;;4.92;100.00
28626;BME280;18905;42.668;23.364;2023-02-04T10:35:46;94524.13;;;4.66;100.00
28626;BME280;18905;42.668;23.364;2023-02-04T10:38:12;94535.66;;;4.80;100.00
28626;BME280;18905;42.668;23.364;2023-02-04T10:40:37;94514.47;;;4.83;100.00
28626;BME280;18905;42.668;23.364;2023-02-04T10:43:08;94527.16;;;4.91;100.00
28626;BME280;18905;42.668;23.364;2023-02-04T10:45:34;94531.59;;;4.82;100.00
28626;BME280;18905;42.668;23.364;2023-02-04T10:48:00;94505.72;;;4.78;100.00
28626;BME280;18905;42.668;23.364;2023-02-04T10:50:27;94536.38;;;4.99;100.00
28626;BME280;18905;42.668;23.364;2023-02-04T10:52:56;94534.00;;;5.11;100.00
28626;BME280;18905;42.668;23.364;2023-02-04T10:55:46;94522.91;;;5.04;100.00
28626;BME280;18905;42.668;23.364;2023-02-04T10:58:16;94525.78;;;4.94;100.00
28626;BME280;18905;42.668;23.364;2023-02-04T11:00:42;94507.34;;;4.79;100.00
28626;BME280;18905;42.668;23.364;2023-02-04T11:03:21;94519.34;;;5.08;100.00
28626;BME280;18905;42.668;23.364;2023-02-04T11:05:47;94497.72;;;4.91;100.00
28626;BME280;18905;42.668;23.364;2023-02-04T11:08:23;94523.56;;;4.96;100.00
28626;BME280;18905;42.668;23.364;2023-02-04T11:11:20;94508.50;;;4.73;100.00
28626;BME280;18905;42.668;23.364;2023-02-04T11:18:54;94499.69;;;4.72;100.00
28626;BME280;18905;42.668;23.364;2023-02-04T11:26:37;94502.28;;;4.91;100.00
28626;BME280;18905;42.668;23.364;2023-02-04T11:39:47;94509.31;;;5.00;100.00
28626;BME280;18905;42.668;23.364;2023-02-04T11:45:27;94483.97;;;4.98;100.00
28626;BME280;18905;42.668;23.364;2023-02-04T11:47:56;94516.69;;;4.63;100.00
28626;BME280;18905;42.668;23.364;2023-02-04T11:50:26;94511.78;;;4.70;100.00
28626;BME280;18905;42.668;23.364;2023-02-04T11:52:55;94504.69;;;4.47;100.00
28626;BME280;18905;42.668;23.364;2023-02-04T11:55:20;94506.81;;;4.31;100.00
28626;BME280;18905;42.668;23.364;2023-02-04T11:57:50;94503.13;;;4.59;100.00
28626;BME280;18905;42.668;23.364;2023-02-04T12:00:34;94501.78;;;4.89;100.00
28626;BME280;18905;42.668;23.364;2023-02-04T12:03:04;94510.41;;;4.99;100.00
28626;BME280;18905;42.668;23.364;2023-02-04T12:05:50;94496.16;;;4.45;100.00
28626;BME280;18905;42.668;23.364;2023-02-04T12:08:26;94504.75;;;4.87;100.00
28626;BME280;18905;42.668;23.364;2023-02-04T12:11:24;94504.66;;;4.92;100.00
28626;BME280;18905;42.668;23.364;2023-02-04T12:14:05;94480.38;;;4.89;100.00
28626;BME280;18905;42.668;23.364;2023-02-04T12:16:45;94488.63;;;5.06;100.00
28626;BME280;18905;42.668;23.364;2023-02-04T12:19:12;94489.09;;;5.08;100.00
28626;BME280;18905;42.668;23.364;2023-02-04T12:21:38;94476.38;;;4.59;100.00
28626;BME280;18905;42.668;23.364;2023-02-04T12:24:04;94503.56;;;4.80;100.00
28626;BME280;18905;42.668;23.364;2023-02-04T12:26:29;94476.78;;;4.53;100.00
28626;BME280;18905;42.668;23.364;2023-02-04T12:28:54;94488.13;;;4.45;100.00
28626;BME280;18905;42.668;23.364;2023-02-04T12:31:20;94480.97;;;4.27;100.00
28626;BME280;18905;42.668;23.364;2023-02-04T12:33:46;94474.78;;;4.45;100.00
28626;BME280;18905;42.668;23.364;2023-02-04T12:36:11;94464.94;;;4.27;100.00
28626;BME280;18905;42.668;23.364;2023-02-04T12:38:37;94494.56;;;4.30;100.00
28626;BME280;18905;42.668;23.364;2023-02-04T12:41:02;94478.66;;;4.20;100.00
28626;BME280;18905;42.668;23.364;2023-02-04T12:43:27;94494.56;;;4.30;100.00
28626;BME280;18905;42.668;23.364;2023-02-04T12:45:53;94476.22;;;4.24;100.00
28626;BME280;18905;42.668;23.364;2023-02-04T12:48:18;94475.91;;;4.25;100.00
28626;BME280;18905;42.668;23.364;2023-02-04T12:50:44;94481.38;;;4.34;100.00
28626;BME280;18905;42.668;23.364;2023-02-04T12:53:09;94477.00;;;4.24;100.00
28626;BME280;18905;42.668;23.364;2023-02-04T12:55:35;94456.91;;;4.27;100.00
28626;BME280;18905;42.668;23.364;2023-02-04T12:58:00;94476.28;;;4.51;100.00
28626;BME280;18905;42.668;23.364;2023-02-04T13:00:26;94481.41;;;4.47;100.00
28626;BME280;18905;42.668;23.364;2023-02-04T13:02:52;94486.31;;;4.86;100.00
28626;BME280;18905;42.668;23.364;2023-02-04T13:05:19;94475.59;;;4.59;100.00
28626;BME280;18905;42.668;23.364;2023-02-04T13:07:44;94483.94;;;4.71;100.00
28626;BME280;18905;42.668;23.364;2023-02-04T13:10:10;94482.75;;;4.63;100.00
28626;BME280;18905;42.668;23.364;2023-02-04T13:12:36;94488.94;;;4.59;100.00
28626;BME280;18905;42.668;23.364;2023-02-04T13:15:03;94488.38;;;4.75;100.00